sensor_id;sensor_type;location;lat;lon;timestamp;P1;durP1;ratioP1;P2;durP2;ratioP2
58808;SDS011;44579;51.672;7.834;2022-08-19T00:02:00;6.78;;;5.20;;
58808;SDS011;44579;51.672;7.834;2022-08-19T00:04:33;9.25;;;5.97;;
58808;SDS011;44579;51.672;7.834;2022-08-19T00:07:47;8.05;;;5.47;;
58808;SDS011;44579;51.672;7.834;2022-08-19T00:10:15;12.30;;;5.55;;
58808;SDS011;44579;51.672;7.834;2022-08-19T00:12:46;7.78;;;5.30;;
58808;SDS011;44579;51.672;7.834;2022-08-19T00:15:17;15.43;;;5.07;;
58808;SDS011;44579;51.672;7.834;2022-08-19T00:17:53;8.30;;;5.23;;
58808;SDS011;44579;51.672;7.834;2022-08-19T00:20:21;9.60;;;5.40;;
58808;SDS011;44579;51.672;7.834;2022-08-19T00:22:59;9.82;;;6.03;;
58808;SDS011;44579;51.672;7.834;2022-08-19T00:25:27;14.80;;;5.97;;
58808;SDS011;44579;51.672;7.834;2022-08-19T00:27:56;15.05;;;5.53;;
58808;SDS011;44579;51.672;7.834;2022-08-19T00:30:27;11.95;;;6.00;;
58808;SDS011;44579;51.672;7.834;2022-08-19T00:33:06;12.93;;;5.97;;
58808;SDS011;44579;51.672;7.834;2022-08-19T00:35:34;8.55;;;4.82;;
58808;SDS011;44579;51.672;7.834;2022-08-19T00:38:02;8.75;;;5.20;;
58808;SDS011;44579;51.672;7.834;2022-08-19T00:40:32;6.22;;;5.15;;
58808;SDS011;44579;51.672;7.834;2022-08-19T00:43:00;9.38;;;5.80;;
58808;SDS011;44579;51.672;7.834;2022-08-19T00:45:43;7.70;;;5.68;;
58808;SDS011;44579;51.672;7.834;2022-08-19T00:49:06;11.35;;;6.38;;
58808;SDS011;44579;51.672;7.834;2022-08-19T00:51:53;12.45;;;5.47;;
58808;SDS011;44579;51.672;7.834;2022-08-19T00:54:32;8.32;;;5.32;;
58808;SDS011;44579;51.672;7.834;2022-08-19T00:57:15;10.07;;;6.13;;
58808;SDS011;44579;51.672;7.834;2022-08-19T00:59:46;9.32;;;5.55;;
58808;SDS011;44579;51.672;7.834;2022-08-19T01:02:28;8.25;;;4.82;;
58808;SDS011;44579;51.672;7.834;2022-08-19T01:04:57;10.43;;;5.40;;
58808;SDS011;44579;51.672;7.834;2022-08-19T01:07:25;7.55;;;6.03;;
58808;SDS011;44579;51.672;7.834;2022-08-19T01:09:52;12.00;;;6.10;;
58808;SDS011;44579;51.672;7.834;2022-08-19T01:12:20;9.48;;;5.65;;
58808;SDS011;44579;51.672;7.834;2022-08-19T01:14:48;9.90;;;5.68;;
58808;SDS011;44579;51.672;7.834;2022-08-19T01:17:16;12.98;;;5.72;;
58808;SDS011;44579;51.672;7.834;2022-08-19T01:19:44;8.65;;;5.85;;
58808;SDS011;44579;51.672;7.834;2022-08-19T01:22:19;12.13;;;5.90;;
58808;SDS011;44579;51.672;7.834;2022-08-19T01:25:01;9.50;;;5.57;;
58808;SDS011;44579;51.672;7.834;2022-08-19T01:27:39;10.57;;;5.90;;
58808;SDS011;44579;51.672;7.834;2022-08-19T01:30:15;8.18;;;5.53;;
58808;SDS011;44579;51.672;7.834;2022-08-19T01:32:46;9.30;;;6.10;;
58808;SDS011;44579;51.672;7.834;2022-08-19T01:37:44;11.60;;;5.72;;
58808;SDS011;44579;51.672;7.834;2022-08-19T01:40:16;14.25;;;6.32;;
58808;SDS011;44579;51.672;7.834;2022-08-19T01:42:47;10.55;;;6.28;;
58808;SDS011;44579;51.672;7.834;2022-08-19T01:45:15;8.57;;;6.38;;
58808;SDS011;44579;51.672;7.834;2022-08-19T01:47:43;12.57;;;6.13;;
58808;SDS011;44579;51.672;7.834;2022-08-19T01:50:27;9.25;;;5.97;;
58808;SDS011;44579;51.672;7.834;2022-08-19T01:52:56;15.82;;;6.90;;
58808;SDS011;44579;51.672;7.834;2022-08-19T01:55:32;14.43;;;7.25;;
58808;SDS011;44579;51.672;7.834;2022-08-19T01:58:08;10.27;;;6.40;;
58808;SDS011;44579;51.672;7.834;2022-08-19T02:00:40;10.20;;;6.57;;
58808;SDS011;44579;51.672;7.834;2022-08-19T02:03:09;10.32;;;6.18;;
58808;SDS011;44579;51.672;7.834;2022-08-19T02:05:38;10.43;;;6.30;;
58808;SDS011;44579;51.672;7.834;2022-08-19T02:08:06;9.80;;;6.07;;
58808;SDS011;44579;51.672;7.834;2022-08-19T02:10:37;13.30;;;6.63;;
58808;SDS011;44579;51.672;7.834;2022-08-19T02:13:06;11.60;;;7.10;;
58808;SDS011;44579;51.672;7.834;2022-08-19T02:15:36;12.65;;;7.97;;
58808;SDS011;44579;51.672;7.834;2022-08-19T02:18:04;15.25;;;6.90;;
58808;SDS011;44579;51.672;7.834;2022-08-19T02:20:32;11.20;;;7.00;;
58808;SDS011;44579;51.672;7.834;2022-08-19T02:23:00;10.48;;;7.13;;
58808;SDS011;44579;51.672;7.834;2022-08-19T02:25:27;12.50;;;7.65;;
58808;SDS011;44579;51.672;7.834;2022-08-19T02:30:22;15.63;;;6.85;;
58808;SDS011;44579;51.672;7.834;2022-08-19T02:32:51;13.07;;;6.70;;
58808;SDS011;44579;51.672;7.834;2022-08-19T02:35:21;10.90;;;6.75;;
58808;SDS011;44579;51.672;7.834;2022-08-19T02:37:48;17.00;;;7.30;;
58808;SDS011;44579;51.672;7.834;2022-08-19T02:40:34;10.48;;;6.88;;
58808;SDS011;44579;51.672;7.834;2022-08-19T02:43:02;12.20;;;7.47;;
58808;SDS011;44579;51.672;7.834;2022-08-19T02:45:33;14.60;;;7.78;;
58808;SDS011;44579;51.672;7.834;2022-08-19T02:48:05;12.20;;;6.85;;
58808;SDS011;44579;51.672;7.834;2022-08-19T02:50:47;14.10;;;6.78;;
58808;SDS011;44579;51.672;7.834;2022-08-19T02:53:23;17.88;;;8.07;;
58808;SDS011;44579;51.672;7.834;2022-08-19T02:55:52;14.98;;;7.40;;
58808;SDS011;44579;51.672;7.834;2022-08-19T03:00:49;12.35;;;7.07;;
58808;SDS011;44579;51.672;7.834;2022-08-19T03:03:18;11.82;;;7.18;;
58808;SDS011;44579;51.672;7.834;2022-08-19T03:05:46;10.65;;;6.70;;
58808;SDS011;44579;51.672;7.834;2022-08-19T03:08:23;13.18;;;7.05;;
58808;SDS011;44579;51.672;7.834;2022-08-19T03:10:51;11.68;;;7.22;;
58808;SDS011;44579;51.672;7.834;2022-08-19T03:13:19;18.75;;;7.90;;
58808;SDS011;44579;51.672;7.834;2022-08-19T03:18:14;16.17;;;8.65;;
58808;SDS011;44579;51.672;7.834;2022-08-19T03:20:52;17.73;;;8.98;;
58808;SDS011;44579;51.672;7.834;2022-08-19T03:23:21;16.38;;;8.35;;
58808;SDS011;44579;51.672;7.834;2022-08-19T03:25:50;14.00;;;7.53;;
58808;SDS011;44579;51.672;7.834;2022-08-19T03:28:40;16.88;;;8.57;;
58808;SDS011;44579;51.672;7.834;2022-08-19T03:31:16;19.98;;;9.40;;
58808;SDS011;44579;51.672;7.834;2022-08-19T03:34:05;17.50;;;7.75;;
58808;SDS011;44579;51.672;7.834;2022-08-19T03:36:33;15.02;;;7.97;;
58808;SDS011;44579;51.672;7.834;2022-08-19T03:39:02;14.00;;;8.25;;
58808;SDS011;44579;51.672;7.834;2022-08-19T03:41:30;13.90;;;7.85;;
58808;SDS011;44579;51.672;7.834;2022-08-19T03:44:15;13.48;;;8.18;;
58808;SDS011;44579;51.672;7.834;2022-08-19T03:46:46;21.90;;;8.95;;
58808;SDS011;44579;51.672;7.834;2022-08-19T03:49:15;19.90;;;9.27;;
58808;SDS011;44579;51.672;7.834;2022-08-19T03:51:45;15.65;;;9.88;;
58808;SDS011;44579;51.672;7.834;2022-08-19T03:54:13;22.13;;;9.75;;
58808;SDS011;44579;51.672;7.834;2022-08-19T03:56:43;20.65;;;9.85;;
58808;SDS011;44579;51.672;7.834;2022-08-19T03:59:15;17.52;;;9.07;;
58808;SDS011;44579;51.672;7.834;2022-08-19T04:01:55;17.42;;;9.10;;
58808;SDS011;44579;51.672;7.834;2022-08-19T04:04:24;14.77;;;8.80;;
58808;SDS011;44579;51.672;7.834;2022-08-19T04:06:56;19.95;;;8.00;;
58808;SDS011;44579;51.672;7.834;2022-08-19T04:09:24;15.70;;;8.10;;
58808;SDS011;44579;51.672;7.834;2022-08-19T04:11:53;20.63;;;9.77;;
58808;SDS011;44579;51.672;7.834;2022-08-19T04:14:23;14.27;;;9.00;;
58808;SDS011;44579;51.672;7.834;2022-08-19T04:16:52;18.15;;;10.32;;
58808;SDS011;44579;51.672;7.834;2022-08-19T04:19:20;16.25;;;9.43;;
58808;SDS011;44579;51.672;7.834;2022-08-19T04:21:48;17.70;;;9.07;;
58808;SDS011;44579;51.672;7.834;2022-08-19T04:24:18;14.73;;;8.93;;
58808;SDS011;44579;51.672;7.834;2022-08-19T04:26:47;21.95;;;9.43;;
58808;SDS011;44579;51.672;7.834;2022-08-19T04:29:17;16.98;;;9.82;;
58808;SDS011;44579;51.672;7.834;2022-08-19T04:31:51;17.13;;;9.32;;
58808;SDS011;44579;51.672;7.834;2022-08-19T04:34:21;16.83;;;8.50;;
58808;SDS011;44579;51.672;7.834;2022-08-19T04:36:51;16.92;;;9.45;;
58808;SDS011;44579;51.672;7.834;2022-08-19T04:39:31;15.07;;;9.60;;
58808;SDS011;44579;51.672;7.834;2022-08-19T04:42:17;19.70;;;9.90;;
58808;SDS011;44579;51.672;7.834;2022-08-19T04:45:05;18.05;;;9.25;;
58808;SDS011;44579;51.672;7.834;2022-08-19T04:47:38;18.52;;;10.40;;
58808;SDS011;44579;51.672;7.834;2022-08-19T04:50:23;18.52;;;10.18;;
58808;SDS011;44579;51.672;7.834;2022-08-19T04:52:52;17.67;;;9.88;;
58808;SDS011;44579;51.672;7.834;2022-08-19T04:57:46;28.65;;;12.77;;
58808;SDS011;44579;51.672;7.834;2022-08-19T05:00:13;24.55;;;14.20;;
58808;SDS011;44579;51.672;7.834;2022-08-19T05:05:07;27.67;;;15.43;;
58808;SDS011;44579;51.672;7.834;2022-08-19T05:07:35;39.53;;;15.18;;
58808;SDS011;44579;51.672;7.834;2022-08-19T05:10:03;27.88;;;15.02;;
58808;SDS011;44579;51.672;7.834;2022-08-19T05:12:31;33.60;;;15.07;;
58808;SDS011;44579;51.672;7.834;2022-08-19T05:14:58;41.00;;;18.00;;
58808;SDS011;44579;51.672;7.834;2022-08-19T05:17:26;38.17;;;17.30;;
58808;SDS011;44579;51.672;7.834;2022-08-19T05:20:00;38.13;;;14.60;;
58808;SDS011;44579;51.672;7.834;2022-08-19T05:22:46;42.15;;;16.73;;
58808;SDS011;44579;51.672;7.834;2022-08-19T05:25:15;33.72;;;17.55;;
58808;SDS011;44579;51.672;7.834;2022-08-19T05:27:47;35.42;;;16.25;;
58808;SDS011;44579;51.672;7.834;2022-08-19T05:32:42;40.30;;;16.13;;
58808;SDS011;44579;51.672;7.834;2022-08-19T05:35:10;39.58;;;18.17;;
58808;SDS011;44579;51.672;7.834;2022-08-19T05:37:38;36.80;;;18.15;;
58808;SDS011;44579;51.672;7.834;2022-08-19T05:40:07;30.40;;;16.75;;
58808;SDS011;44579;51.672;7.834;2022-08-19T05:42:35;33.67;;;15.95;;
58808;SDS011;44579;51.672;7.834;2022-08-19T05:45:02;38.88;;;19.20;;
58808;SDS011;44579;51.672;7.834;2022-08-19T05:47:30;42.22;;;18.02;;
58808;SDS011;44579;51.672;7.834;2022-08-19T05:49:57;46.55;;;19.23;;
58808;SDS011;44579;51.672;7.834;2022-08-19T05:52:27;48.45;;;19.33;;
58808;SDS011;44579;51.672;7.834;2022-08-19T05:54:55;38.65;;;19.52;;
58808;SDS011;44579;51.672;7.834;2022-08-19T05:57:23;43.25;;;19.77;;
58808;SDS011;44579;51.672;7.834;2022-08-19T05:59:50;40.63;;;19.30;;
58808;SDS011;44579;51.672;7.834;2022-08-19T06:02:24;32.95;;;18.05;;
58808;SDS011;44579;51.672;7.834;2022-08-19T06:04:55;39.20;;;19.35;;
58808;SDS011;44579;51.672;7.834;2022-08-19T06:07:22;35.45;;;20.00;;
58808;SDS011;44579;51.672;7.834;2022-08-19T06:09:49;36.70;;;20.90;;
58808;SDS011;44579;51.672;7.834;2022-08-19T06:12:27;45.38;;;20.35;;
58808;SDS011;44579;51.672;7.834;2022-08-19T06:14:55;48.85;;;21.38;;
58808;SDS011;44579;51.672;7.834;2022-08-19T06:17:27;42.70;;;21.95;;
58808;SDS011;44579;51.672;7.834;2022-08-19T06:19:57;48.78;;;21.45;;
58808;SDS011;44579;51.672;7.834;2022-08-19T06:22:25;40.88;;;21.58;;
58808;SDS011;44579;51.672;7.834;2022-08-19T06:24:52;44.58;;;22.05;;
58808;SDS011;44579;51.672;7.834;2022-08-19T06:27:20;46.80;;;21.35;;
58808;SDS011;44579;51.672;7.834;2022-08-19T06:32:15;44.20;;;22.63;;
58808;SDS011;44579;51.672;7.834;2022-08-19T06:34:43;55.22;;;23.45;;
58808;SDS011;44579;51.672;7.834;2022-08-19T06:37:10;52.05;;;22.75;;
58808;SDS011;44579;51.672;7.834;2022-08-19T06:39:38;51.97;;;24.63;;
58808;SDS011;44579;51.672;7.834;2022-08-19T06:42:07;52.30;;;23.05;;
58808;SDS011;44579;51.672;7.834;2022-08-19T06:44:39;52.42;;;23.95;;
58808;SDS011;44579;51.672;7.834;2022-08-19T06:47:09;55.42;;;25.25;;
58808;SDS011;44579;51.672;7.834;2022-08-19T06:49:48;56.88;;;22.85;;
58808;SDS011;44579;51.672;7.834;2022-08-19T06:54:43;56.47;;;20.45;;
58808;SDS011;44579;51.672;7.834;2022-08-19T06:57:22;44.28;;;21.80;;
58808;SDS011;44579;51.672;7.834;2022-08-19T06:59:50;48.03;;;23.40;;
58808;SDS011;44579;51.672;7.834;2022-08-19T07:02:18;56.38;;;23.88;;
58808;SDS011;44579;51.672;7.834;2022-08-19T07:04:47;51.05;;;18.00;;
58808;SDS011;44579;51.672;7.834;2022-08-19T07:07:18;49.10;;;21.52;;
58808;SDS011;44579;51.672;7.834;2022-08-19T07:09:48;47.97;;;20.10;;
58808;SDS011;44579;51.672;7.834;2022-08-19T07:12:28;61.75;;;21.60;;
58808;SDS011;44579;51.672;7.834;2022-08-19T07:15:01;48.22;;;20.80;;
58808;SDS011;44579;51.672;7.834;2022-08-19T07:17:30;54.97;;;20.55;;
58808;SDS011;44579;51.672;7.834;2022-08-19T07:20:00;53.13;;;20.50;;
58808;SDS011;44579;51.672;7.834;2022-08-19T07:22:35;49.55;;;18.90;;
58808;SDS011;44579;51.672;7.834;2022-08-19T07:25:05;61.42;;;18.80;;
58808;SDS011;44579;51.672;7.834;2022-08-19T07:27:33;47.90;;;17.35;;
58808;SDS011;44579;51.672;7.834;2022-08-19T07:30:00;56.92;;;19.20;;
58808;SDS011;44579;51.672;7.834;2022-08-19T07:32:28;41.15;;;19.52;;
58808;SDS011;44579;51.672;7.834;2022-08-19T07:34:57;44.20;;;20.60;;
58808;SDS011;44579;51.672;7.834;2022-08-19T07:37:27;66.20;;;20.88;;
58808;SDS011;44579;51.672;7.834;2022-08-19T07:39:59;49.95;;;20.95;;
58808;SDS011;44579;51.672;7.834;2022-08-19T07:42:28;58.70;;;21.02;;
58808;SDS011;44579;51.672;7.834;2022-08-19T07:44:56;47.25;;;20.27;;
58808;SDS011;44579;51.672;7.834;2022-08-19T07:47:24;46.58;;;18.95;;
58808;SDS011;44579;51.672;7.834;2022-08-19T07:52:38;46.78;;;19.27;;
58808;SDS011;44579;51.672;7.834;2022-08-19T07:55:06;33.88;;;17.70;;
58808;SDS011;44579;51.672;7.834;2022-08-19T07:57:56;37.00;;;18.17;;
58808;SDS011;44579;51.672;7.834;2022-08-19T08:00:23;55.55;;;19.83;;
58808;SDS011;44579;51.672;7.834;2022-08-19T08:02:51;44.13;;;17.58;;
58808;SDS011;44579;51.672;7.834;2022-08-19T08:05:21;32.03;;;17.65;;
58808;SDS011;44579;51.672;7.834;2022-08-19T08:08:10;46.75;;;18.88;;
58808;SDS011;44579;51.672;7.834;2022-08-19T08:11:01;38.03;;;15.63;;
58808;SDS011;44579;51.672;7.834;2022-08-19T08:13:33;35.47;;;18.17;;
58808;SDS011;44579;51.672;7.834;2022-08-19T08:16:01;38.70;;;18.35;;
58808;SDS011;44579;51.672;7.834;2022-08-19T08:18:29;40.38;;;17.20;;
58808;SDS011;44579;51.672;7.834;2022-08-19T08:20:56;37.38;;;15.35;;
58808;SDS011;44579;51.672;7.834;2022-08-19T08:23:25;47.67;;;17.23;;
58808;SDS011;44579;51.672;7.834;2022-08-19T08:25:53;35.75;;;14.10;;
58808;SDS011;44579;51.672;7.834;2022-08-19T08:28:23;28.52;;;14.25;;
58808;SDS011;44579;51.672;7.834;2022-08-19T08:30:55;29.42;;;12.98;;
58808;SDS011;44579;51.672;7.834;2022-08-19T08:33:25;29.67;;;14.18;;
58808;SDS011;44579;51.672;7.834;2022-08-19T08:36:06;28.23;;;13.25;;
58808;SDS011;44579;51.672;7.834;2022-08-19T08:38:35;32.47;;;12.50;;
58808;SDS011;44579;51.672;7.834;2022-08-19T08:41:13;19.92;;;9.40;;
58808;SDS011;44579;51.672;7.834;2022-08-19T08:43:49;25.38;;;13.00;;
58808;SDS011;44579;51.672;7.834;2022-08-19T08:49:16;27.77;;;13.73;;
58808;SDS011;44579;51.672;7.834;2022-08-19T08:51:51;25.33;;;11.43;;
58808;SDS011;44579;51.672;7.834;2022-08-19T08:54:39;28.27;;;12.50;;
58808;SDS011;44579;51.672;7.834;2022-08-19T08:57:30;21.90;;;9.95;;
58808;SDS011;44579;51.672;7.834;2022-08-19T09:00:07;32.45;;;15.77;;
58808;SDS011;44579;51.672;7.834;2022-08-19T09:02:41;32.75;;;14.98;;
58808;SDS011;44579;51.672;7.834;2022-08-19T09:05:09;32.90;;;16.73;;
58808;SDS011;44579;51.672;7.834;2022-08-19T09:07:48;27.65;;;14.50;;
58808;SDS011;44579;51.672;7.834;2022-08-19T09:10:40;31.23;;;14.25;;
58808;SDS011;44579;51.672;7.834;2022-08-19T09:13:29;29.45;;;14.95;;
58808;SDS011;44579;51.672;7.834;2022-08-19T09:16:07;39.50;;;17.98;;
58808;SDS011;44579;51.672;7.834;2022-08-19T09:18:42;24.88;;;13.35;;
58808;SDS011;44579;51.672;7.834;2022-08-19T09:21:15;21.95;;;12.30;;
58808;SDS011;44579;51.672;7.834;2022-08-19T09:23:42;27.38;;;13.13;;
58808;SDS011;44579;51.672;7.834;2022-08-19T09:28:42;17.02;;;8.65;;
58808;SDS011;44579;51.672;7.834;2022-08-19T09:31:16;16.77;;;8.50;;
58808;SDS011;44579;51.672;7.834;2022-08-19T09:33:44;19.52;;;9.02;;
58808;SDS011;44579;51.672;7.834;2022-08-19T09:36:14;18.27;;;8.23;;
58808;SDS011;44579;51.672;7.834;2022-08-19T09:39:00;18.48;;;9.05;;
58808;SDS011;44579;51.672;7.834;2022-08-19T09:41:27;15.93;;;9.02;;
58808;SDS011;44579;51.672;7.834;2022-08-19T09:43:56;21.35;;;8.32;;
58808;SDS011;44579;51.672;7.834;2022-08-19T09:46:27;16.75;;;8.20;;
58808;SDS011;44579;51.672;7.834;2022-08-19T09:48:57;11.30;;;7.28;;
58808;SDS011;44579;51.672;7.834;2022-08-19T09:51:33;17.85;;;11.75;;
58808;SDS011;44579;51.672;7.834;2022-08-19T09:54:06;16.80;;;10.05;;
58808;SDS011;44579;51.672;7.834;2022-08-19T09:56:36;11.38;;;7.15;;
58808;SDS011;44579;51.672;7.834;2022-08-19T09:59:07;13.85;;;6.85;;
58808;SDS011;44579;51.672;7.834;2022-08-19T10:01:36;14.55;;;6.65;;
58808;SDS011;44579;51.672;7.834;2022-08-19T10:04:06;14.30;;;5.18;;
58808;SDS011;44579;51.672;7.834;2022-08-19T10:06:49;14.40;;;5.57;;
58808;SDS011;44579;51.672;7.834;2022-08-19T10:09:23;10.45;;;5.65;;
58808;SDS011;44579;51.672;7.834;2022-08-19T10:12:01;12.25;;;6.45;;
58808;SDS011;44579;51.672;7.834;2022-08-19T10:14:31;17.23;;;6.57;;
58808;SDS011;44579;51.672;7.834;2022-08-19T10:16:59;11.65;;;5.40;;
58808;SDS011;44579;51.672;7.834;2022-08-19T10:19:47;8.07;;;5.60;;
58808;SDS011;44579;51.672;7.834;2022-08-19T10:22:21;9.38;;;6.25;;
58808;SDS011;44579;51.672;7.834;2022-08-19T10:24:51;13.95;;;7.13;;
58808;SDS011;44579;51.672;7.834;2022-08-19T10:27:19;12.90;;;6.30;;
58808;SDS011;44579;51.672;7.834;2022-08-19T10:29:46;14.43;;;7.20;;
58808;SDS011;44579;51.672;7.834;2022-08-19T10:32:14;9.20;;;6.40;;
58808;SDS011;44579;51.672;7.834;2022-08-19T10:34:42;19.27;;;5.90;;
58808;SDS011;44579;51.672;7.834;2022-08-19T10:37:23;11.23;;;5.28;;
58808;SDS011;44579;51.672;7.834;2022-08-19T10:39:56;10.85;;;5.75;;
58808;SDS011;44579;51.672;7.834;2022-08-19T10:42:24;13.70;;;6.85;;
58808;SDS011;44579;51.672;7.834;2022-08-19T10:44:52;11.05;;;6.85;;
58808;SDS011;44579;51.672;7.834;2022-08-19T10:47:37;9.77;;;6.40;;
58808;SDS011;44579;51.672;7.834;2022-08-19T10:50:09;11.88;;;5.90;;
58808;SDS011;44579;51.672;7.834;2022-08-19T10:53:03;10.27;;;7.60;;
58808;SDS011;44579;51.672;7.834;2022-08-19T10:55:35;11.27;;;7.88;;
58808;SDS011;44579;51.672;7.834;2022-08-19T10:58:23;10.50;;;6.20;;
58808;SDS011;44579;51.672;7.834;2022-08-19T11:00:58;9.68;;;5.40;;
58808;SDS011;44579;51.672;7.834;2022-08-19T11:03:26;9.15;;;5.70;;
58808;SDS011;44579;51.672;7.834;2022-08-19T11:06:06;6.97;;;4.78;;
58808;SDS011;44579;51.672;7.834;2022-08-19T11:08:38;11.50;;;5.40;;
58808;SDS011;44579;51.672;7.834;2022-08-19T11:11:12;9.45;;;4.57;;
58808;SDS011;44579;51.672;7.834;2022-08-19T11:13:58;7.32;;;4.88;;
58808;SDS011;44579;51.672;7.834;2022-08-19T11:16:26;5.65;;;4.05;;
58808;SDS011;44579;51.672;7.834;2022-08-19T11:18:56;5.82;;;3.85;;
58808;SDS011;44579;51.672;7.834;2022-08-19T11:21:29;7.03;;;4.40;;
58808;SDS011;44579;51.672;7.834;2022-08-19T11:24:05;14.57;;;4.13;;
58808;SDS011;44579;51.672;7.834;2022-08-19T11:26:34;5.70;;;3.97;;
58808;SDS011;44579;51.672;7.834;2022-08-19T11:29:06;13.60;;;5.45;;
58808;SDS011;44579;51.672;7.834;2022-08-19T11:31:40;8.32;;;4.90;;
58808;SDS011;44579;51.672;7.834;2022-08-19T11:34:13;8.80;;;4.20;;
58808;SDS011;44579;51.672;7.834;2022-08-19T11:36:53;7.78;;;3.80;;
58808;SDS011;44579;51.672;7.834;2022-08-19T11:39:25;9.80;;;5.47;;
58808;SDS011;44579;51.672;7.834;2022-08-19T11:41:55;8.43;;;4.10;;
58808;SDS011;44579;51.672;7.834;2022-08-19T11:44:28;7.93;;;3.55;;
58808;SDS011;44579;51.672;7.834;2022-08-19T11:47:02;10.65;;;3.72;;
58808;SDS011;44579;51.672;7.834;2022-08-19T11:49:34;5.35;;;3.80;;
58808;SDS011;44579;51.672;7.834;2022-08-19T11:52:04;10.35;;;3.80;;
58808;SDS011;44579;51.672;7.834;2022-08-19T11:54:41;8.13;;;4.60;;
58808;SDS011;44579;51.672;7.834;2022-08-19T11:57:34;5.57;;;3.38;;
58808;SDS011;44579;51.672;7.834;2022-08-19T12:00:02;7.10;;;3.80;;
58808;SDS011;44579;51.672;7.834;2022-08-19T12:02:32;12.13;;;4.07;;
58808;SDS011;44579;51.672;7.834;2022-08-19T12:04:59;8.32;;;4.78;;
58808;SDS011;44579;51.672;7.834;2022-08-19T12:07:32;6.82;;;3.97;;
58808;SDS011;44579;51.672;7.834;2022-08-19T12:10:01;6.32;;;3.10;;
58808;SDS011;44579;51.672;7.834;2022-08-19T12:12:29;5.88;;;3.70;;
58808;SDS011;44579;51.672;7.834;2022-08-19T12:14:59;7.32;;;3.90;;
58808;SDS011;44579;51.672;7.834;2022-08-19T12:17:26;11.85;;;3.30;;
58808;SDS011;44579;51.672;7.834;2022-08-19T12:20:00;6.97;;;3.00;;
58808;SDS011;44579;51.672;7.834;2022-08-19T12:22:27;9.00;;;3.47;;
58808;SDS011;44579;51.672;7.834;2022-08-19T12:24:58;4.47;;;2.90;;
58808;SDS011;44579;51.672;7.834;2022-08-19T12:27:26;9.07;;;3.85;;
58808;SDS011;44579;51.672;7.834;2022-08-19T12:30:07;7.50;;;4.40;;
58808;SDS011;44579;51.672;7.834;2022-08-19T12:32:39;7.95;;;5.47;;
58808;SDS011;44579;51.672;7.834;2022-08-19T12:35:09;7.70;;;4.63;;
58808;SDS011;44579;51.672;7.834;2022-08-19T12:37:38;5.38;;;3.88;;
58808;SDS011;44579;51.672;7.834;2022-08-19T12:40:23;17.58;;;4.32;;
58808;SDS011;44579;51.672;7.834;2022-08-19T12:43:00;8.93;;;3.97;;
58808;SDS011;44579;51.672;7.834;2022-08-19T12:45:28;7.97;;;5.20;;
58808;SDS011;44579;51.672;7.834;2022-08-19T12:48:02;14.35;;;4.40;;
58808;SDS011;44579;51.672;7.834;2022-08-19T12:50:52;8.55;;;4.55;;
58808;SDS011;44579;51.672;7.834;2022-08-19T12:53:25;10.82;;;4.53;;
58808;SDS011;44579;51.672;7.834;2022-08-19T12:55:55;7.82;;;4.72;;
58808;SDS011;44579;51.672;7.834;2022-08-19T12:58:23;9.00;;;4.07;;
58808;SDS011;44579;51.672;7.834;2022-08-19T13:00:53;6.97;;;4.40;;
58808;SDS011;44579;51.672;7.834;2022-08-19T13:03:27;14.07;;;5.50;;
58808;SDS011;44579;51.672;7.834;2022-08-19T13:05:59;9.80;;;7.00;;
58808;SDS011;44579;51.672;7.834;2022-08-19T13:08:26;3.78;;;2.17;;
58808;SDS011;44579;51.672;7.834;2022-08-19T13:10:57;27.88;;;5.50;;
58808;SDS011;44579;51.672;7.834;2022-08-19T13:13:24;7.63;;;4.40;;
58808;SDS011;44579;51.672;7.834;2022-08-19T13:15:52;9.98;;;4.55;;
58808;SDS011;44579;51.672;7.834;2022-08-19T13:18:26;7.93;;;4.60;;
58808;SDS011;44579;51.672;7.834;2022-08-19T13:20:55;5.25;;;4.13;;
58808;SDS011;44579;51.672;7.834;2022-08-19T13:23:26;7.07;;;4.82;;
58808;SDS011;44579;51.672;7.834;2022-08-19T13:25:57;10.80;;;4.85;;
58808;SDS011;44579;51.672;7.834;2022-08-19T13:28:29;6.28;;;4.25;;
58808;SDS011;44579;51.672;7.834;2022-08-19T13:31:18;9.07;;;4.38;;
58808;SDS011;44579;51.672;7.834;2022-08-19T13:34:08;6.15;;;4.53;;
58808;SDS011;44579;51.672;7.834;2022-08-19T13:36:36;5.70;;;4.40;;
58808;SDS011;44579;51.672;7.834;2022-08-19T13:39:05;13.77;;;5.13;;
58808;SDS011;44579;51.672;7.834;2022-08-19T13:41:42;15.35;;;3.50;;
58808;SDS011;44579;51.672;7.834;2022-08-19T13:44:14;14.75;;;5.72;;
58808;SDS011;44579;51.672;7.834;2022-08-19T13:46:48;7.80;;;4.43;;
58808;SDS011;44579;51.672;7.834;2022-08-19T13:49:20;11.70;;;4.05;;
58808;SDS011;44579;51.672;7.834;2022-08-19T13:51:51;11.88;;;3.97;;
58808;SDS011;44579;51.672;7.834;2022-08-19T13:54:18;9.15;;;4.03;;
58808;SDS011;44579;51.672;7.834;2022-08-19T13:56:45;5.00;;;3.50;;
58808;SDS011;44579;51.672;7.834;2022-08-19T14:01:47;9.60;;;4.50;;
58808;SDS011;44579;51.672;7.834;2022-08-19T14:04:16;4.50;;;3.78;;
58808;SDS011;44579;51.672;7.834;2022-08-19T14:09:14;12.80;;;4.63;;
58808;SDS011;44579;51.672;7.834;2022-08-19T14:14:07;7.72;;;4.80;;
58808;SDS011;44579;51.672;7.834;2022-08-19T14:16:42;7.70;;;4.32;;
58808;SDS011;44579;51.672;7.834;2022-08-19T14:19:09;9.77;;;4.57;;
58808;SDS011;44579;51.672;7.834;2022-08-19T14:24:07;5.25;;;3.58;;
58808;SDS011;44579;51.672;7.834;2022-08-19T14:26:34;10.27;;;5.22;;
58808;SDS011;44579;51.672;7.834;2022-08-19T14:29:05;8.00;;;5.32;;
58808;SDS011;44579;51.672;7.834;2022-08-19T14:31:34;10.30;;;5.22;;
58808;SDS011;44579;51.672;7.834;2022-08-19T14:34:02;11.90;;;7.20;;
58808;SDS011;44579;51.672;7.834;2022-08-19T14:36:29;7.40;;;5.00;;
58808;SDS011;44579;51.672;7.834;2022-08-19T14:39:02;13.27;;;5.32;;
58808;SDS011;44579;51.672;7.834;2022-08-19T14:41:29;8.50;;;5.53;;
58808;SDS011;44579;51.672;7.834;2022-08-19T14:43:57;13.25;;;4.90;;
58808;SDS011;44579;51.672;7.834;2022-08-19T14:46:24;12.73;;;4.93;;
58808;SDS011;44579;51.672;7.834;2022-08-19T14:48:55;8.38;;;3.78;;
58808;SDS011;44579;51.672;7.834;2022-08-19T14:51:26;6.30;;;4.22;;
58808;SDS011;44579;51.672;7.834;2022-08-19T14:53:53;6.07;;;4.18;;
58808;SDS011;44579;51.672;7.834;2022-08-19T14:56:25;5.97;;;4.72;;
58808;SDS011;44579;51.672;7.834;2022-08-19T14:58:54;5.43;;;4.78;;
58808;SDS011;44579;51.672;7.834;2022-08-19T15:01:25;12.52;;;4.63;;
58808;SDS011;44579;51.672;7.834;2022-08-19T15:03:53;10.52;;;6.30;;
58808;SDS011;44579;51.672;7.834;2022-08-19T15:06:21;13.85;;;5.97;;
58808;SDS011;44579;51.672;7.834;2022-08-19T15:08:52;7.50;;;5.15;;
58808;SDS011;44579;51.672;7.834;2022-08-19T15:11:21;8.30;;;4.90;;
58808;SDS011;44579;51.672;7.834;2022-08-19T15:13:50;9.25;;;6.60;;
58808;SDS011;44579;51.672;7.834;2022-08-19T15:16:18;8.48;;;5.65;;
58808;SDS011;44579;51.672;7.834;2022-08-19T15:18:49;8.18;;;5.28;;
58808;SDS011;44579;51.672;7.834;2022-08-19T15:21:22;9.35;;;5.13;;
58808;SDS011;44579;51.672;7.834;2022-08-19T15:23:53;12.10;;;4.80;;
58808;SDS011;44579;51.672;7.834;2022-08-19T15:26:21;8.63;;;5.00;;
58808;SDS011;44579;51.672;7.834;2022-08-19T15:28:49;7.88;;;4.80;;
58808;SDS011;44579;51.672;7.834;2022-08-19T15:33:55;5.30;;;4.32;;
58808;SDS011;44579;51.672;7.834;2022-08-19T15:36:26;12.80;;;5.07;;
58808;SDS011;44579;51.672;7.834;2022-08-19T15:38:56;7.53;;;4.40;;
58808;SDS011;44579;51.672;7.834;2022-08-19T15:41:25;7.07;;;5.07;;
58808;SDS011;44579;51.672;7.834;2022-08-19T15:44:00;7.07;;;5.10;;
58808;SDS011;44579;51.672;7.834;2022-08-19T15:46:38;9.18;;;4.68;;
58808;SDS011;44579;51.672;7.834;2022-08-19T15:49:10;10.45;;;5.15;;